Time;durP1;ratioP1;P1;durP2;ratioP2;P2;SDS_P1;SDS_P2;PMS_P1;PMS_P2;Temp;Humidity;BMP_temperature;BMP_pressure;BME280_temperature;BME280_humidity;BME280_pressure;Samples;Min_cycle;Max_cycle;Signal;HPM_P1;HPM_P2
2022/12/17 13:08:06;;;;;;;67.63;33.95;;;0.10;99.90;;;;;;5094113;28;20043;-51
2022/12/17 13:10:33;;;;;;;;;;;0.10;99.90;;;;;;5094113;28;20086;-51
2022/12/17 13:13:11;;;;;;;64.38;32.33;;;0.10;99.90;;;;;;5085373;28;19987;-52
2022/12/17 13:15:43;;;;;;;65.80;33.22;;;0.10;99.90;;;;;;5085364;28;20052;-53
2022/12/17 13:18:32;;;;;;;68.03;34.58;;;0.10;99.90;;;;;;5083233;28;20044;-51
2022/12/17 13:21:15;;;;;;;69.35;34.75;;;0.10;99.90;;;;;;5085348;28;20239;-51
2022/12/17 13:23:41;;;;;;;65.95;33.40;;;0.00;99.90;;;;;;5084269;28;20405;-51
2022/12/17 13:26:40;;;;;;;67.35;33.45;;;0.00;99.90;;;;;;5084370;28;20036;-51
2022/12/17 13:29:26;;;;;;;69.07;33.15;;;-0.10;99.90;;;;;;5090961;28;20041;-51
2022/12/17 13:32:24;;;;;;;73.28;34.53;;;-0.20;99.90;;;;;;5083857;28;20056;-52
2022/12/17 13:35:15;;;;;;;72.65;32.67;;;-0.20;99.90;;;;;;5079816;28;20037;-52
2022/12/17 13:37:53;;;;;;;66.93;32.92;;;-0.20;99.90;;;;;;5083528;28;20148;-51
2022/12/17 13:40:38;;;;;;;71.93;32.92;;;-0.20;99.90;;;;;;5100261;28;20111;-51
2022/12/17 13:43:03;;;;;;;76.75;38.70;;;-0.20;99.90;;;;;;5084563;28;20059;-54
2022/12/17 13:45:37;;;;;;;72.28;34.03;;;-0.30;99.90;;;;;;5076144;28;20442;-51
2022/12/17 13:48:04;;;;;;;73.50;35.05;;;-0.30;99.90;;;;;;5091745;28;20052;-51
2022/12/17 13:50:30;;;;;;;62.10;30.02;;;-0.30;99.90;;;;;;5089166;28;20079;-51
2022/12/17 13:52:56;;;;;;;67.72;32.05;;;-0.30;99.90;;;;;;5091794;28;20077;-51
2022/12/17 13:55:25;;;;;;;64.82;31.92;;;-0.40;99.90;;;;;;5082421;28;20378;-52
2022/12/17 13:57:52;;;;;;;70.18;33.33;;;-0.30;99.90;;;;;;5071922;28;20049;-51
2022/12/17 14:00:24;;;;;;;66.72;32.80;;;-0.30;99.90;;;;;;5071749;28;20490;-51
2022/12/17 14:02:51;;;;;;;70.35;34.75;;;-0.50;99.90;;;;;;5080670;28;20048;-51
2022/12/17 14:05:33;;;;;;;77.45;35.17;;;-0.40;99.90;;;;;;5092176;28;20041;-52
2022/12/17 14:08:04;;;;;;;78.38;36.70;;;-0.60;99.90;;;;;;5089390;28;20055;-51
2022/12/17 14:10:30;;;;;;;73.20;34.67;;;-0.70;99.90;;;;;;5101340;28;20050;-52
2022/12/17 14:13:15;;;;;;;69.65;31.92;;;-0.70;99.90;;;;;;5085308;28;20041;-51
2022/12/17 14:15:51;;;;;;;67.20;32.47;;;-0.80;99.90;;;;;;5094763;28;20044;-52
2022/12/17 14:18:19;;;;;;;70.15;31.85;;;-0.80;99.90;;;;;;5096215;28;20040;-51
2022/12/17 14:20:47;;;;;;;69.03;31.75;;;-0.80;99.90;;;;;;5094750;28;20132;-51
2022/12/17 14:23:28;;;;;;;72.20;33.80;;;-0.90;99.90;;;;;;5095454;28;20517;-51
2022/12/17 14:25:55;;;;;;;67.88;29.52;;;-0.90;99.90;;;;;;5093382;28;20505;-51
2022/12/17 14:28:30;;;;;;;72.65;30.55;;;-0.90;99.90;;;;;;5080123;28;20051;-51
2022/12/17 14:31:08;;;;;;;71.43;30.75;;;-1.00;99.90;;;;;;5088816;28;20051;-51
2022/12/17 14:33:36;;;;;;;72.13;31.02;;;-1.00;99.90;;;;;;5077974;28;20512;-51
2022/12/17 14:36:06;;;;;;;71.18;29.95;;;-1.00;99.90;;;;;;5095593;28;20127;-51
2022/12/17 14:38:33;;;;;;;68.75;31.98;;;-1.00;99.90;;;;;;5093596;28;20403;-48
2022/12/17 14:44:01;;;;;;;73.53;31.00;;;-1.00;99.90;;;;;;5111629;22;20060;-53
2022/12/17 14:46:29;;;;;;;76.53;31.60;;;-1.10;99.90;;;;;;5063146;28;20044;-52
2022/12/17 14:49:02;;;;;;;;;;;-1.10;99.90;;;;;;5050095;28;20413;-52
2022/12/17 14:51:34;;;;;;;77.07;31.48;;;-1.20;99.90;;;;;;5066926;28;19920;-51
2022/12/17 14:54:15;;;;;;;77.53;34.30;;;-1.20;99.90;;;;;;5062997;28;20037;-51
2022/12/17 14:56:42;;;;;;;77.13;33.20;;;-1.20;99.90;;;;;;5069278;28;20103;-50
2022/12/17 14:59:32;;;;;;;84.47;36.63;;;-1.20;99.90;;;;;;5067135;28;20036;-50
2022/12/17 15:02:18;;;;;;;80.85;35.00;;;-1.30;99.90;;;;;;5067487;28;20396;-51
2022/12/17 15:04:44;;;;;;;81.40;33.40;;;-1.20;99.90;;;;;;5067664;28;20036;-51
2022/12/17 15:07:13;;;;;;;81.57;34.40;;;-1.10;99.90;;;;;;5069032;28;20052;-51
2022/12/17 15:09:40;;;;;;;83.80;33.47;;;-1.00;99.90;;;;;;5069129;28;20044;-50
2022/12/17 15:12:06;;;;;;;74.28;33.58;;;-1.00;99.90;;;;;;5068515;28;20527;-51
2022/12/17 15:14:32;;;;;;;76.90;35.25;;;-1.00;99.90;;;;;;5069773;28;20036;-52
2022/12/17 15:16:58;;;;;;;80.57;35.47;;;-1.10;99.90;;;;;;5066279;28;20067;-51
2022/12/17 15:19:24;;;;;;;82.85;35.50;;;-1.00;99.90;;;;;;5068229;28;20044;-52
2022/12/17 15:21:52;;;;;;;80.57;34.20;;;-1.00;99.90;;;;;;5064674;28;20037;-51
2022/12/17 15:24:19;;;;;;;74.70;33.20;;;-1.20;99.90;;;;;;5064753;28;20055;-52
2022/12/17 15:26:45;;;;;;;78.90;35.15;;;-1.20;99.90;;;;;;5066445;28;20132;-50
2022/12/17 15:29:11;;;;;;;82.18;35.80;;;-1.30;99.90;;;;;;5069193;28;20051;-53
2022/12/17 15:31:37;;;;;;;80.72;37.38;;;-1.30;99.90;;;;;;5068523;28;20033;-50
2022/12/17 15:34:03;;;;;;;81.13;36.78;;;-1.30;99.90;;;;;;5064626;28;20037;-50
2022/12/17 15:36:33;;;;;;;82.45;35.03;;;-1.30;99.90;;;;;;5065754;28;20375;-54
2022/12/17 15:38:59;;;;;;;80.47;35.42;;;-1.30;99.90;;;;;;5064617;28;20113;-50
2022/12/17 15:44:08;;;;;;;78.22;36.30;;;-1.40;99.90;;;;;;5065000;28;20044;-52
2022/12/17 15:46:34;;;;;;;82.60;37.30;;;-1.40;99.90;;;;;;5065886;28;20463;-50
2022/12/17 15:49:00;;;;;;;75.47;36.08;;;-1.40;99.90;;;;;;5068313;28;20059;-51
2022/12/17 15:51:26;;;;;;;78.28;40.83;;;-1.40;99.90;;;;;;5049643;28;20118;-50
2022/12/17 15:53:51;;;;;;;81.40;36.55;;;-1.40;99.90;;;;;;5064687;28;20048;-50
2022/12/17 15:56:25;;;;;;;83.35;38.25;;;-1.50;99.90;;;;;;5063108;28;20075;-50
2022/12/17 15:58:51;;;;;;;76.93;36.20;;;-1.40;99.90;;;;;;5065550;28;20079;-50
2022/12/17 16:01:18;;;;;;;80.50;39.10;;;-1.40;99.90;;;;;;5069015;28;20079;-50
2022/12/17 16:03:44;;;;;;;77.70;37.97;;;-1.40;99.90;;;;;;5067526;28;20132;-50
2022/12/17 16:06:10;;;;;;;78.13;38.20;;;-1.40;99.90;;;;;;5068563;28;20119;-50
2022/12/17 16:08:37;;;;;;;76.60;36.35;;;-1.40;99.90;;;;;;5067481;28;20032;-50
2022/12/17 16:11:08;;;;;;;70.90;34.77;;;-1.40;99.90;;;;;;5066888;28;20098;-51
2022/12/17 16:13:34;;;;;;;72.40;36.53;;;-1.40;99.90;;;;;;5061904;28;20049;-50
2022/12/17 16:16:00;;;;;;;69.95;35.65;;;-1.50;99.90;;;;;;5116774;22;20056;-50
2022/12/17 16:18:25;;;;;;;69.00;35.97;;;-1.50;99.90;;;;;;5105272;28;20039;-50
2022/12/17 16:20:51;;;;;;;68.38;36.28;;;-1.50;99.90;;;;;;5107278;28;20036;-51
2022/12/17 16:23:16;;;;;;;73.70;39.03;;;-1.40;99.90;;;;;;5119513;27;20145;-50
2022/12/17 16:25:42;;;;;;;72.68;39.15;;;-1.50;99.90;;;;;;5101066;28;20384;-50
2022/12/17 16:28:08;;;;;;;71.63;37.88;;;-1.40;99.90;;;;;;5103374;28;20415;-51
2022/12/17 16:30:34;;;;;;;74.15;38.72;;;-1.40;99.90;;;;;;5094947;28;20046;-53
2022/12/17 16:32:59;;;;;;;75.03;40.65;;;-1.40;99.90;;;;;;5109325;28;20472;-50
2022/12/17 16:35:27;;;;;;;78.13;42.78;;;-1.50;99.90;;;;;;5107842;27;20118;-50
2022/12/17 16:37:53;;;;;;;74.13;40.47;;;-1.50;99.90;;;;;;5110384;28;20055;-50
2022/12/17 16:40:19;;;;;;;76.55;39.65;;;-1.40;99.90;;;;;;5113870;28;20464;-51
2022/12/17 16:42:45;;;;;;;76.97;41.00;;;-1.50;99.90;;;;;;5109389;28;20534;-51
2022/12/17 16:45:11;;;;;;;73.10;39.60;;;-1.50;99.90;;;;;;5115561;27;20041;-53
2022/12/17 16:47:36;;;;;;;71.40;40.83;;;-1.50;99.90;;;;;;5109155;27;20055;-54
2022/12/17 16:50:02;;;;;;;75.80;40.15;;;-1.50;99.90;;;;;;5106738;28;20036;-51
2022/12/17 16:52:29;;;;;;;73.20;39.30;;;-1.50;99.90;;;;;;5089307;28;20051;-51
2022/12/17 16:54:55;;;;;;;77.97;41.95;;;-1.60;99.90;;;;;;5105468;28;20130;-51
2022/12/17 16:57:20;;;;;;;80.22;40.60;;;-1.50;99.90;;;;;;5109734;28;20048;-50
2022/12/17 16:59:46;;;;;;;76.05;40.95;;;-1.60;99.90;;;;;;5110733;28;20046;-50
2022/12/17 17:02:14;;;;;;;76.65;41.95;;;-1.60;99.90;;;;;;5088248;28;20692;-50
2022/12/17 17:04:39;;;;;;;77.63;43.72;;;-1.60;99.90;;;;;;5092036;28;20101;-50
2022/12/17 17:07:05;;;;;;;82.72;44.90;;;-1.60;99.90;;;;;;5103394;28;20043;-50
2022/12/17 17:09:30;;;;;;;72.43;40.30;;;-1.60;99.90;;;;;;5094482;28;20457;-50
2022/12/17 17:12:00;;;;;;;84.03;43.47;;;-1.70;99.90;;;;;;5105573;28;20046;-50
2022/12/17 17:14:25;;;;;;;80.88;44.17;;;-1.70;99.90;;;;;;5096029;28;20055;-50
2022/12/17 17:16:51;;;;;;;85.05;46.05;;;-1.60;99.90;;;;;;5091866;28;20511;-50
2022/12/17 17:19:18;;;;;;;82.85;44.90;;;-1.60;99.90;;;;;;5092251;28;21021;-50
2022/12/17 17:21:52;;;;;;;82.68;45.95;;;-1.60;99.90;;;;;;5105955;28;20035;-50
2022/12/17 17:24:20;;;;;;;86.32;45.15;;;-1.60;99.90;;;;;;5095086;28;20035;-49
2022/12/17 17:26:46;;;;;;;87.05;46.03;;;-1.60;99.90;;;;;;5101883;28;20092;-50
2022/12/17 17:29:12;;;;;;;85.47;45.70;;;-1.60;99.90;;;;;;5092364;28;20036;-51
2022/12/17 17:31:38;;;;;;;84.35;44.70;;;-1.60;99.90;;;;;;5097602;28;20031;-55
2022/12/17 17:34:11;;;;;;;86.82;45.90;;;-1.60;99.90;;;;;;5088952;28;20064;-51
2022/12/17 17:36:38;;;;;;;89.72;46.35;;;-1.60;99.90;;;;;;5095311;28;20166;-51
2022/12/17 17:39:05;;;;;;;83.40;44.88;;;-1.60;99.90;;;;;;5103652;28;20050;-51
2022/12/17 17:41:32;;;;;;;81.82;42.80;;;-1.60;99.90;;;;;;5099168;28;20037;-51
2022/12/17 17:44:07;;;;;;;87.05;46.42;;;-1.60;99.90;;;;;;5096472;28;20047;-54
2022/12/17 17:46:34;;;;;;;86.38;45.10;;;-1.70;99.90;;;;;;5078342;28;20042;-50
2022/12/17 17:49:02;;;;;;;82.05;45.33;;;-1.70;99.90;;;;;;5095502;28;20076;-49
2022/12/17 17:51:31;;;;;;;81.80;41.33;;;-1.70;99.90;;;;;;5095065;28;20515;-50
2022/12/17 17:53:59;;;;;;;77.53;40.20;;;-1.60;99.90;;;;;;5097038;28;20389;-49
2022/12/17 17:56:27;;;;;;;82.38;44.33;;;-1.70;99.90;;;;;;5076425;28;20044;-49
2022/12/17 17:58:57;;;;;;;81.18;44.45;;;-1.70;99.90;;;;;;5103316;28;20032;-49
2022/12/17 18:01:28;;;;;;;87.40;45.15;;;-1.70;99.90;;;;;;5102550;28;20040;-49
2022/12/17 18:06:25;;;;;;;84.63;44.78;;;-1.70;99.90;;;;;;5107606;22;20060;-50
2022/12/17 18:08:51;;;;;;;90.97;46.05;;;-1.70;99.90;;;;;;5089224;28;20075;-50
2022/12/17 18:11:19;;;;;;;93.13;47.88;;;-1.70;99.90;;;;;;5090906;28;20076;-50
2022/12/17 18:13:55;;;;;;;93.65;47.95;;;-1.70;99.90;;;;;;4209956;22;20055;-53
2022/12/17 18:16:20;;;;;;;85.25;43.78;;;-1.70;99.90;;;;;;5104604;28;20387;-50
2022/12/17 18:18:47;;;;;;;85.53;43.38;;;-1.80;99.90;;;;;;5107136;28;20039;-50
2022/12/17 18:21:15;;;;;;;92.32;47.25;;;-1.80;99.90;;;;;;5102015;28;20040;-50
2022/12/17 18:23:41;;;;;;;89.75;43.80;;;-1.80;99.90;;;;;;5102320;28;20036;-50
2022/12/17 18:26:10;;;;;;;84.28;43.15;;;-1.90;99.90;;;;;;5107822;28;20035;-51
2022/12/17 18:28:36;;;;;;;84.72;42.13;;;-1.90;99.90;;;;;;5082140;27;20039;-50
2022/12/17 18:31:07;;;;;;;86.78;41.50;;;-2.00;99.90;;;;;;5104447;28;20039;-50
2022/12/17 18:33:34;;;;;;;89.28;44.58;;;-2.00;99.90;;;;;;5115729;28;20051;-51
2022/12/17 18:35:59;;;;;;;80.97;40.70;;;-2.00;99.90;;;;;;5104204;28;20040;-50
2022/12/17 18:38:25;;;;;;;83.82;42.58;;;-2.00;99.90;;;;;;5111174;27;20115;-50
2022/12/17 18:40:50;;;;;;;79.40;39.28;;;-2.10;99.90;;;;;;5113854;28;20047;-52
2022/12/17 18:43:22;;;;;;;82.60;40.92;;;-2.10;99.90;;;;;;5114034;28;20370;-51
2022/12/17 18:45:49;;;;;;;87.22;43.80;;;-2.10;99.90;;;;;;5109468;28;20387;-50
2022/12/17 18:48:14;;;;;;;93.40;44.35;;;-2.00;99.90;;;;;;5100000;28;20063;-53
2022/12/17 18:50:40;;;;;;;96.38;45.85;;;-2.00;99.90;;;;;;5109914;28;20071;-50
2022/12/17 18:53:05;;;;;;;90.50;44.88;;;-2.00;99.90;;;;;;5109893;28;20457;-50
2022/12/17 18:55:31;;;;;;;90.80;44.28;;;-2.00;99.90;;;;;;5098289;28;20040;-50
2022/12/17 18:57:57;;;;;;;87.97;42.70;;;-2.00;99.90;;;;;;5092469;28;20401;-50
2022/12/17 19:00:22;;;;;;;86.03;40.85;;;-2.00;99.90;;;;;;5103009;28;20035;-52
2022/12/17 19:02:48;;;;;;;90.28;41.78;;;-2.00;99.90;;;;;;5094503;28;20044;-51
2022/12/17 19:05:14;;;;;;;86.97;41.33;;;-2.10;99.90;;;;;;5125571;22;20055;-50
2022/12/17 19:07:40;;;;;;;79.28;35.90;;;-2.10;99.90;;;;;;5101616;28;20046;-54
2022/12/17 19:10:06;;;;;;;83.60;36.72;;;-2.10;99.90;;;;;;5101359;27;20433;-50
2022/12/17 19:12:31;;;;;;;79.97;38.15;;;-2.10;99.90;;;;;;5114236;28;20449;-50
2022/12/17 19:14:57;;;;;;;82.65;37.85;;;-2.20;99.90;;;;;;5102635;28;20248;-50
2022/12/17 19:17:23;;;;;;;80.40;38.38;;;-2.20;99.90;;;;;;5106468;28;20048;-50
2022/12/17 19:19:48;;;;;;;83.07;39.10;;;-2.20;99.90;;;;;;5105111;28;20048;-50
2022/12/17 19:22:14;;;;;;;87.72;41.35;;;-2.30;99.90;;;;;;5103609;28;20066;-50
2022/12/17 19:24:39;;;;;;;85.10;40.70;;;-2.20;99.90;;;;;;5105372;28;20039;-51
2022/12/17 19:27:05;;;;;;;92.28;40.38;;;-2.20;99.90;;;;;;5106455;28;20684;-50
2022/12/17 19:29:31;;;;;;;86.32;40.03;;;-2.20;99.90;;;;;;5103082;28;20135;-50
2022/12/17 19:31:56;;;;;;;99.50;43.13;;;-2.20;99.90;;;;;;5115133;27;20036;-51
2022/12/17 19:34:22;;;;;;;98.50;44.22;;;-2.20;99.90;;;;;;4548686;22;20418;-52
2022/12/17 19:36:48;;;;;;;97.13;41.83;;;-2.20;99.90;;;;;;5086005;28;20053;-54
2022/12/17 19:39:16;;;;;;;98.45;44.97;;;-2.30;99.90;;;;;;5071076;28;20048;-51
2022/12/17 19:41:49;;;;;;;94.80;42.45;;;-2.40;99.90;;;;;;5086630;28;20040;-51
2022/12/17 19:44:16;;;;;;;92.82;39.67;;;-2.40;99.90;;;;;;5072821;28;20051;-52
2022/12/17 19:46:42;;;;;;;94.60;40.88;;;-2.40;99.90;;;;;;5075163;28;20119;-53
2022/12/17 19:49:12;;;;;;;87.70;37.33;;;-2.40;99.90;;;;;;5086448;28;20501;-54
2022/12/17 19:51:40;;;;;;;101.45;46.30;;;-2.40;99.90;;;;;;5092924;28;20040;-52
2022/12/17 19:54:05;;;;;;;90.13;39.95;;;-2.50;99.90;;;;;;5091240;28;20055;-52
2022/12/17 19:56:32;;;;;;;93.15;40.15;;;-2.50;99.90;;;;;;5069252;28;20382;-53
2022/12/17 20:02:02;;;;;;;96.88;41.17;;;-2.50;99.90;;;;;;5062585;28;20061;-50
2022/12/17 20:04:28;;;;;;;106.05;45.42;;;-2.50;99.90;;;;;;5066916;28;20073;-51
2022/12/17 20:06:54;;;;;;;84.25;37.03;;;-2.50;99.90;;;;;;5066620;28;20414;-50
2022/12/17 20:09:20;;;;;;;99.55;41.00;;;-2.60;99.90;;;;;;5062814;28;21248;-50
2022/12/17 20:11:45;;;;;;;98.20;40.15;;;-2.60;99.90;;;;;;5065362;28;20041;-51
2022/12/17 20:14:14;;;;;;;99.38;43.13;;;-2.70;99.90;;;;;;5067185;28;20036;-51
2022/12/17 20:16:46;;;;;;;97.55;40.17;;;-2.70;99.90;;;;;;5064686;28;20044;-52
2022/12/17 20:19:17;;;;;;;96.95;40.40;;;-2.70;99.90;;;;;;5063861;28;20045;-50
2022/12/17 20:21:43;;;;;;;99.70;39.00;;;-2.70;99.90;;;;;;5063778;28;20044;-54
2022/12/17 20:24:09;;;;;;;95.18;41.30;;;-2.70;99.90;;;;;;5066913;28;20045;-51
2022/12/17 20:26:35;;;;;;;99.07;40.72;;;-2.70;99.90;;;;;;5063002;28;20143;-50
2022/12/17 20:29:02;;;;;;;102.47;40.70;;;-2.70;99.90;;;;;;5065028;28;20161;-50
2022/12/17 20:31:27;;;;;;;95.25;39.83;;;-2.70;99.90;;;;;;5050118;28;20144;-51
2022/12/17 20:33:53;;;;;;;93.00;39.45;;;-2.70;99.90;;;;;;5064838;28;20086;-50
2022/12/17 20:36:20;;;;;;;97.43;40.17;;;-2.80;99.90;;;;;;5064847;28;20123;-50
2022/12/17 20:38:46;;;;;;;96.78;41.83;;;-2.80;99.90;;;;;;5067320;28;20093;-49
2022/12/17 20:41:15;;;;;;;90.88;38.63;;;-2.80;99.90;;;;;;5066715;28;20036;-49
2022/12/17 20:43:41;;;;;;;92.25;38.45;;;-2.80;99.90;;;;;;5067391;28;20047;-51
2022/12/17 20:46:10;;;;;;;92.22;37.88;;;-2.80;99.90;;;;;;5064097;28;20045;-50
2022/12/17 20:48:38;;;;;;;95.63;41.05;;;-2.80;99.90;;;;;;5063195;28;20382;-50
2022/12/17 20:51:05;;;;;;;107.93;41.05;;;-2.80;99.90;;;;;;5064343;28;20036;-53
2022/12/17 20:53:33;;;;;;;91.72;38.53;;;-2.80;99.90;;;;;;5062773;28;20040;-51
2022/12/17 20:56:03;;;;;;;88.25;36.47;;;-2.80;99.90;;;;;;5074318;28;20067;-51
2022/12/17 20:58:29;;;;;;;90.30;37.65;;;-2.90;99.90;;;;;;5079324;28;20468;-51
2022/12/17 21:01:07;;;;;;;90.47;37.15;;;-2.80;99.90;;;;;;5069399;28;20041;-50
2022/12/17 21:03:33;;;;;;;98.38;38.47;;;-2.90;99.90;;;;;;5062935;28;20048;-51
2022/12/17 21:06:07;;;;;;;99.43;40.72;;;-2.90;99.90;;;;;;5039829;28;20473;-49
2022/12/17 21:08:32;;;;;;;101.72;40.65;;;-2.90;99.90;;;;;;5064388;28;20076;-49
2022/12/17 21:10:58;;;;;;;106.72;42.78;;;-2.90;99.90;;;;;;5067871;28;20125;-49
2022/12/17 21:13:29;;;;;;;98.82;40.92;;;-2.90;99.90;;;;;;5064120;28;20040;-51
2022/12/17 21:15:57;;;;;;;99.22;39.67;;;-2.90;99.90;;;;;;5065887;28;20089;-50
2022/12/17 21:18:24;;;;;;;92.72;38.03;;;-2.90;99.90;;;;;;5065513;28;20048;-54
2022/12/17 21:21:01;;;;;;;88.40;37.42;;;-2.80;99.90;;;;;;5063367;28;20124;-51
2022/12/17 21:23:28;;;;;;;87.30;36.10;;;-2.80;99.90;;;;;;5059905;28;20060;-52
2022/12/17 21:25:59;;;;;;;77.03;32.65;;;-2.80;99.90;;;;;;5063872;28;20043;-50
2022/12/17 21:28:25;;;;;;;85.63;34.95;;;-2.80;99.90;;;;;;5062980;28;20048;-50
2022/12/17 21:30:51;;;;;;;91.20;34.92;;;-2.80;99.90;;;;;;5058386;28;20037;-49
2022/12/17 21:33:17;;;;;;;90.38;36.55;;;-2.90;99.90;;;;;;5063723;28;20040;-51
2022/12/17 21:35:42;;;;;;;86.22;35.78;;;-2.80;99.90;;;;;;5066150;28;20516;-51
2022/12/17 21:38:08;;;;;;;83.80;34.60;;;-2.80;99.90;;;;;;5067610;28;20032;-50
2022/12/17 21:40:35;;;;;;;86.22;34.22;;;-2.80;99.90;;;;;;5064089;28;20033;-52
2022/12/17 21:43:01;;;;;;;91.72;35.20;;;-2.80;99.90;;;;;;5064439;28;20037;-49
2022/12/17 21:45:32;;;;;;;96.38;37.78;;;-2.90;99.90;;;;;;5066620;28;20492;-50
2022/12/17 21:47:57;;;;;;;97.43;38.40;;;-2.90;99.90;;;;;;5063918;28;20350;-50
2022/12/17 21:50:23;;;;;;;106.45;40.00;;;-2.90;99.90;;;;;;5064241;28;20044;-51
2022/12/17 21:52:49;;;;;;;111.85;39.45;;;-2.90;99.90;;;;;;5064446;28;21258;-49
2022/12/17 21:55:14;;;;;;;106.68;39.50;;;-2.90;99.90;;;;;;5064050;28;20077;-50
2022/12/17 21:57:40;;;;;;;104.78;41.65;;;-2.90;99.90;;;;;;5066254;28;20389;-52
2022/12/17 22:00:06;;;;;;;110.78;39.58;;;-2.90;99.90;;;;;;5063164;28;20049;-50
2022/12/17 22:02:32;;;;;;;113.65;43.05;;;-2.90;99.90;;;;;;5066491;28;20409;-50
2022/12/17 22:04:57;;;;;;;108.63;42.50;;;-2.90;99.90;;;;;;5067300;28;20040;-50
2022/12/17 22:07:26;;;;;;;123.18;44.33;;;-2.90;99.90;;;;;;5065247;28;20048;-50
2022/12/17 22:09:52;;;;;;;116.97;42.42;;;-2.90;99.90;;;;;;5056790;28;21857;-50
2022/12/17 22:15:02;;;;;;;122.53;42.72;;;-2.90;99.90;;;;;;5061279;28;20045;-50
2022/12/17 22:17:27;;;;;;;109.18;40.70;;;-2.90;99.90;;;;;;5066868;28;20043;-51
2022/12/17 22:19:53;;;;;;;115.35;41.45;;;-2.90;99.90;;;;;;5064712;28;20079;-50
2022/12/17 22:22:18;;;;;;;116.72;41.13;;;-3.00;99.90;;;;;;5060861;28;20029;-50
2022/12/17 22:24:44;;;;;;;128.57;42.35;;;-3.00;99.90;;;;;;5063748;28;20043;-50
2022/12/17 22:27:10;;;;;;;123.38;41.10;;;-3.10;99.90;;;;;;5065613;28;20037;-50
2022/12/17 22:35:04;;;;;;;114.93;37.80;;;-3.30;99.90;;;;;;5069266;28;20455;-51
2022/12/17 22:37:30;;;;;;;117.13;39.55;;;-3.40;99.90;;;;;;5069567;28;20036;-51
2022/12/17 22:39:56;;;;;;;126.82;41.10;;;-3.40;99.90;;;;;;5070980;28;20051;-49
2022/12/17 22:45:06;;;;;;;116.68;41.25;;;-3.40;99.90;;;;;;5071306;28;20045;-49
2022/12/17 22:47:32;;;;;;;109.35;42.15;;;-3.40;99.90;;;;;;5067964;28;20087;-50
2022/12/17 22:49:57;;;;;;;109.15;38.83;;;-3.40;99.90;;;;;;5063808;28;20489;-50
2022/12/17 22:52:23;;;;;;;108.25;40.78;;;-3.40;99.90;;;;;;5066884;28;20044;-49
2022/12/17 22:54:48;;;;;;;107.65;39.65;;;-3.30;99.90;;;;;;5055373;28;20045;-51
2022/12/17 22:57:14;;;;;;;108.65;39.95;;;-3.30;99.90;;;;;;5055873;28;20064;-51
2022/12/17 22:59:40;;;;;;;112.00;40.60;;;-3.30;99.90;;;;;;5060997;28;20094;-49
2022/12/17 23:02:06;;;;;;;117.85;39.58;;;-3.20;99.90;;;;;;5083560;28;20109;-49
2022/12/17 23:04:32;;;;;;;107.70;41.22;;;-3.20;99.90;;;;;;5087707;28;20097;-52
2022/12/17 23:06:58;;;;;;;123.95;46.60;;;-3.20;99.90;;;;;;5084058;28;20040;-50
2022/12/17 23:09:23;;;;;;;119.03;43.67;;;-3.20;99.90;;;;;;5088405;28;20048;-50
2022/12/17 23:11:49;;;;;;;116.47;42.45;;;-3.20;99.90;;;;;;5082106;28;20226;-53
2022/12/17 23:14:15;;;;;;;112.88;41.25;;;-3.20;99.90;;;;;;5093090;28;20411;-54
2022/12/17 23:16:40;;;;;;;116.05;43.45;;;-3.20;99.90;;;;;;5089266;28;20041;-51
2022/12/17 23:19:07;;;;;;;116.35;44.35;;;-3.20;99.90;;;;;;5096501;28;20044;-52
2022/12/17 23:21:33;;;;;;;113.68;43.20;;;-3.20;99.90;;;;;;5076518;28;20036;-53
2022/12/17 23:23:59;;;;;;;113.38;43.55;;;-3.10;99.90;;;;;;5085052;28;20523;-53
2022/12/17 23:26:31;;;;;;;123.63;45.40;;;-3.10;99.90;;;;;;5079760;28;20128;-53
2022/12/17 23:29:00;;;;;;;104.35;43.25;;;-3.10;99.90;;;;;;5077364;28;20164;-52
2022/12/17 23:31:27;;;;;;;118.60;44.30;;;-3.10;99.90;;;;;;5081551;28;20381;-50
2022/12/17 23:33:53;;;;;;;120.47;45.83;;;-3.10;99.90;;;;;;5079685;28;20041;-56
2022/12/17 23:36:23;;;;;;;118.00;45.22;;;-3.10;99.90;;;;;;5075707;28;20029;-50
2022/12/17 23:38:50;;;;;;;114.95;45.15;;;-3.10;99.90;;;;;;5085380;28;20551;-52
2022/12/17 23:41:22;;;;;;;118.03;46.10;;;-3.10;99.90;;;;;;5085316;28;20063;-54
2022/12/17 23:43:48;;;;;;;114.43;45.55;;;-3.10;99.90;;;;;;5084602;28;20087;-52
2022/12/17 23:46:14;;;;;;;114.70;44.00;;;-3.10;99.90;;;;;;5081301;28;20036;-50
2022/12/17 23:48:41;;;;;;;122.05;46.03;;;-3.10;99.90;;;;;;5080979;28;20055;-56
2022/12/17 23:51:08;;;;;;;107.18;43.05;;;-3.10;99.90;;;;;;5072477;28;20046;-53
2022/12/17 23:53:35;;;;;;;111.43;43.25;;;-3.20;99.90;;;;;;5076139;28;20975;-53
2022/12/17 23:56:05;;;;;;;107.78;44.20;;;-3.20;99.90;;;;;;5071203;28;20051;-51
2022/12/17 23:58:31;;;;;;;103.90;43.05;;;-3.30;99.90;;;;;;5072833;28;20070;-54
